Weissport, Pennsylvania
Current Conditions -  °F | °C
As of 10:15 AM on Wednesday 26 Nov 2014 (Local Time) from KHZL Reporting Station
Moderate Snow Moderate Snow  
Wind Chill: 32°   Ceiling: 400
Heat Index: 32°   Visibility: 0.25mi
Dew Point: 32°   Wind: 0mph
Humidity: 100%   Direction: NA
Pressure: 30.07"   Gusts: NA
Location:  40.8001°N, 75.751°W
Report Text: KHZL 261515Z AUTO 00000KT 1/4SM SN OVC004 00/00 A3007 RMK AO2 P0001
Loading
Personal Weather Stations






























Interactive Weather Map New forecast layout! Learn more

10-Day Weather Forecast

Advertisements
Track Severe Weather on mobile